createdAt,value
2019-04-25T00:02:21.334Z,10.10
2019-04-25T00:08:23.228Z,10.10
2019-04-25T00:13:31.747Z,10.10
2019-04-25T00:18:36.608Z,10.10
2019-04-25T00:23:55.140Z,10.10
2019-04-25T00:29:04.023Z,10.10
2019-04-25T00:34:15.516Z,10.20
2019-04-25T00:39:25.885Z,10.30
2019-04-25T00:44:27.357Z,10.40
2019-04-25T00:49:45.272Z,10.50
2019-04-25T00:54:53.537Z,10.60
2019-04-25T01:00:14.597Z,10.60
2019-04-25T01:05:44.364Z,10.60
2019-04-25T01:10:50.409Z,10.50
2019-04-25T01:22:27.232Z,10.30
2019-04-25T01:27:33.231Z,10.30
2019-04-25T01:32:38.609Z,10.40
2019-04-25T01:38:04.098Z,10.50
2019-04-25T01:43:27.956Z,10.60
2019-04-25T01:48:54.517Z,10.70
2019-04-25T01:54:00.096Z,10.90
2019-04-25T02:05:51.303Z,11.20
2019-04-25T02:11:08.155Z,11.30
2019-04-25T02:16:21.879Z,11.40
2019-04-25T02:21:26.657Z,11.40
2019-04-25T02:32:50.974Z,11.40
2019-04-25T02:37:54.357Z,11.40
2019-04-25T02:43:01.694Z,11.40
2019-04-25T02:48:19.395Z,11.40
2019-04-25T02:53:50.011Z,11.40
2019-04-25T02:59:09.114Z,11.50
2019-04-25T03:04:14.546Z,11.60
2019-04-25T03:09:19.136Z,11.70
2019-04-25T03:14:26.423Z,11.70
2019-04-25T03:19:54.310Z,11.80
2019-04-25T03:25:00.266Z,11.80
2019-04-25T03:30:45.215Z,11.80
2019-04-25T03:36:23.847Z,11.80
2019-04-25T03:41:55.235Z,11.80
2019-04-25T03:47:00.049Z,11.80
2019-04-25T03:52:21.477Z,11.80
2019-04-25T03:57:36.273Z,11.90
2019-04-25T04:02:40.825Z,11.80
2019-04-25T04:07:45.410Z,11.80
2019-04-25T04:12:50.890Z,11.90
2019-04-25T04:18:05.973Z,11.90
2019-04-25T04:23:25.049Z,11.90
2019-04-25T04:28:51.056Z,12.00
2019-04-25T04:39:59.693Z,12.00
2019-04-25T04:45:12.388Z,12.00
2019-04-25T04:50:25.311Z,12.00
2019-04-25T04:55:30.005Z,12.00
2019-04-25T05:00:34.657Z,12.00
2019-04-25T05:05:58.048Z,11.90
2019-04-25T05:11:06.652Z,12.00
2019-04-25T05:16:12.067Z,12.00
2019-04-25T05:21:26.798Z,12.10
2019-04-25T05:26:28.098Z,12.10
2019-04-25T05:31:45.657Z,12.20
2019-04-25T05:36:53.852Z,12.30
2019-04-25T05:42:14.119Z,12.30
2019-04-25T05:47:17.133Z,12.40
2019-04-25T05:52:31.813Z,12.40
2019-04-25T05:57:45.214Z,12.40
2019-04-25T06:02:44.278Z,12.50
2019-04-25T06:07:50.044Z,12.40
2019-04-25T06:13:14.683Z,12.40
2019-04-25T06:18:27.728Z,12.40
2019-04-25T06:23:49.881Z,12.40
2019-04-25T06:28:58.993Z,12.50
2019-04-25T06:33:55.748Z,12.70
2019-04-25T06:39:00.312Z,12.90
2019-04-25T06:44:06.747Z,13.10
2019-04-25T06:49:36.489Z,13.10
2019-04-25T06:54:37.462Z,13.10
2019-04-25T06:59:56.052Z,13.20
2019-04-25T07:05:00.506Z,13.30
2019-04-25T07:10:06.471Z,13.30
2019-04-25T07:15:16.978Z,13.20
2019-04-25T07:20:24.911Z,13.10
2019-04-25T07:25:34.498Z,13.10
2019-04-25T07:30:49.928Z,13.20
2019-04-25T07:35:47.685Z,13.30
2019-04-25T07:40:55.033Z,13.40
2019-04-25T07:46:03.466Z,13.80
2019-04-25T07:51:14.724Z,14.30
2019-04-25T07:56:24.512Z,14.80
2019-04-25T08:01:28.158Z,15.30
2019-04-25T08:06:31.266Z,15.30
2019-04-25T08:11:34.163Z,15.30
2019-04-25T08:16:44.194Z,15.40
2019-04-25T08:21:47.243Z,16.00
2019-04-25T08:26:48.855Z,16.60
2019-04-25T08:31:51.239Z,17.00
2019-04-25T08:36:54.325Z,17.10
2019-04-25T08:41:56.137Z,17.30
2019-04-25T08:46:57.489Z,17.60
2019-04-25T08:51:59.481Z,17.70
2019-04-25T08:57:04.359Z,18.10
2019-04-25T09:02:10.842Z,18.50
2019-04-25T09:07:13.449Z,18.30
2019-04-25T09:12:16.260Z,18.50
2019-04-25T09:17:17.699Z,19.20
2019-04-25T09:22:20.196Z,19.20
2019-04-25T09:27:23.364Z,19.80
2019-04-25T09:32:24.991Z,19.90
2019-04-25T09:37:26.551Z,19.80
2019-04-25T09:42:28.010Z,19.90
2019-04-25T09:47:30.937Z,20.10
2019-04-25T09:52:33.943Z,20.10
2019-04-25T09:57:53.195Z,20.60
2019-04-25T10:02:55.548Z,20.80
2019-04-25T10:07:57.544Z,20.30
2019-04-25T10:12:59.072Z,20.50
2019-04-25T10:18:01.694Z,19.90
2019-04-25T10:23:05.024Z,19.30
2019-04-25T10:28:07.157Z,19.20
2019-04-25T10:33:08.968Z,19.40
2019-04-25T10:38:13.903Z,19.20
2019-04-25T10:43:15.526Z,18.90
2019-04-25T10:48:17.162Z,19.00
2019-04-25T10:53:23.462Z,19.50
2019-04-25T10:58:26.325Z,20.00
2019-04-25T11:03:33.745Z,19.70
2019-04-25T11:08:35.368Z,19.30
2019-04-25T11:13:38.137Z,18.90
2019-04-25T11:18:40.927Z,18.30
2019-04-25T11:23:46.276Z,17.60
2019-04-25T11:28:47.007Z,16.60
2019-04-25T11:33:48.746Z,16.00
2019-04-25T11:39:10.051Z,15.60
2019-04-25T11:44:11.680Z,15.30
2019-04-25T11:49:15.291Z,15.10
2019-04-25T11:54:16.976Z,14.80
2019-04-25T11:59:18.449Z,14.70
2019-04-25T12:04:19.796Z,14.50
2019-04-25T12:09:21.383Z,14.30
2019-04-25T12:14:25.300Z,14.20
2019-04-25T12:19:34.576Z,14.20
2019-04-25T12:24:33.317Z,14.30
2019-04-25T12:29:35.791Z,14.40
2019-04-25T12:34:37.243Z,14.60
2019-04-25T12:39:38.760Z,14.60
2019-04-25T12:44:54.925Z,14.80
2019-04-25T12:49:57.936Z,15.10
2019-04-25T12:54:59.460Z,15.30
2019-04-25T13:00:04.281Z,15.40
2019-04-25T13:05:07.205Z,15.40
2019-04-25T13:10:09.579Z,15.30
2019-04-25T13:15:11.871Z,15.30
2019-04-25T13:20:13.613Z,15.40
2019-04-25T13:25:17.029Z,15.40
2019-04-25T13:30:37.631Z,15.00
2019-04-25T13:35:50.468Z,14.70
2019-04-25T13:40:53.136Z,14.40
2019-04-25T13:46:01.458Z,14.10
2019-04-25T13:51:04.265Z,13.90
2019-04-25T13:56:08.588Z,13.80
2019-04-25T14:01:15.513Z,13.80
2019-04-25T14:06:16.436Z,13.80
2019-04-25T14:11:18.434Z,13.80
2019-04-25T14:16:22.551Z,13.90
2019-04-25T14:21:26.077Z,14.20
2019-04-25T14:26:31.240Z,14.40
2019-04-25T14:31:44.687Z,14.40
2019-04-25T14:36:36.564Z,14.70
2019-04-25T14:41:37.909Z,15.90
2019-04-25T14:46:39.433Z,16.30
2019-04-25T14:51:42.036Z,16.10
2019-04-25T14:56:58.184Z,15.90
2019-04-25T15:01:59.771Z,15.80
2019-04-25T15:07:02.285Z,15.90
2019-04-25T15:12:04.363Z,16.10
2019-04-25T15:17:07.391Z,15.90
2019-04-25T15:22:08.852Z,16.00
2019-04-25T15:27:11.507Z,16.10
2019-04-25T15:32:14.924Z,16.40
2019-04-25T15:37:36.562Z,16.30
2019-04-25T15:42:39.922Z,15.90
2019-04-25T15:47:41.396Z,15.70
2019-04-25T15:52:45.024Z,16.40
2019-04-25T15:57:46.692Z,17.30
2019-04-25T16:02:48.180Z,17.20
2019-04-25T16:07:49.633Z,16.60
2019-04-25T16:12:51.123Z,16.20
2019-04-25T16:17:52.712Z,15.80
2019-04-25T16:22:54.198Z,15.50
2019-04-25T16:27:55.649Z,15.20
2019-04-25T16:32:57.208Z,14.80
2019-04-25T16:37:59.741Z,14.50
2019-04-25T16:43:04.420Z,14.20
2019-04-25T16:48:06.168Z,13.50
2019-04-25T16:53:07.605Z,12.90
2019-04-25T16:58:09.301Z,12.30
2019-04-25T17:03:11.567Z,12.00
2019-04-25T17:08:14.035Z,11.80
2019-04-25T17:13:15.857Z,11.70
2019-04-25T17:18:31.929Z,11.60
2019-04-25T17:23:34.573Z,11.60
2019-04-25T17:28:39.077Z,11.60
2019-04-25T17:33:42.882Z,11.60
2019-04-25T17:38:46.649Z,11.60
2019-04-25T17:43:48.048Z,11.60
2019-04-25T17:48:49.520Z,11.60
2019-04-25T17:53:50.978Z,11.60
2019-04-25T17:58:52.550Z,11.50
2019-04-25T18:03:54.419Z,11.50
2019-04-25T18:08:56.147Z,11.40
2019-04-25T18:13:57.511Z,11.40
2019-04-25T18:19:06.765Z,11.30
2019-04-25T18:24:18.768Z,11.30
2019-04-25T18:29:22.358Z,11.20
2019-04-25T18:34:31.945Z,11.20
2019-04-25T18:39:47.291Z,11.10
2019-04-25T18:44:48.704Z,11.10
2019-04-25T18:49:50.293Z,11.00
2019-04-25T18:54:53.597Z,10.90
2019-04-25T19:00:02.648Z,10.90
2019-04-25T19:05:17.746Z,10.80
2019-04-25T19:10:19.558Z,10.70
2019-04-25T19:15:22.012Z,10.70
2019-04-25T19:20:24.093Z,10.60
2019-04-25T19:25:25.695Z,10.60
2019-04-25T19:30:27.258Z,10.60
2019-04-25T19:35:28.719Z,10.50
2019-04-25T19:40:32.045Z,10.50
2019-04-25T19:45:33.472Z,10.50
2019-04-25T19:50:34.892Z,10.50
2019-04-25T19:55:36.368Z,10.50
2019-04-25T20:00:38.783Z,10.50
2019-04-25T20:05:42.989Z,10.40
2019-04-25T20:10:49.353Z,10.30
2019-04-25T20:15:51.739Z,10.30
2019-04-25T20:20:54.492Z,10.20
2019-04-25T20:25:57.369Z,10.20
2019-04-25T20:31:01.201Z,10.20
2019-04-25T20:36:03.500Z,10.20
2019-04-25T20:41:04.931Z,10.20
2019-04-25T20:46:06.844Z,10.20
2019-04-25T20:51:08.256Z,10.20
2019-04-25T20:56:10.658Z,10.20
2019-04-25T21:01:12.155Z,10.20
2019-04-25T21:06:18.211Z,10.20
2019-04-25T21:11:19.509Z,10.20
2019-04-25T21:16:25.874Z,10.20
2019-04-25T21:21:27.244Z,10.20
2019-04-25T21:26:28.675Z,10.10
2019-04-25T21:31:32.004Z,10.10
2019-04-25T21:36:33.472Z,10.10
2019-04-25T21:41:53.488Z,10.00
2019-04-25T21:46:55.511Z,9.90
2019-04-25T21:51:58.900Z,9.90
2019-04-25T21:57:01.679Z,9.90
2019-04-25T22:02:06.324Z,9.90
2019-04-25T22:07:08.232Z,9.80
2019-04-25T22:12:11.316Z,9.70
2019-04-25T22:17:15.871Z,9.60
2019-04-25T22:22:17.883Z,9.50
2019-04-25T22:27:21.735Z,9.40
2019-04-25T22:32:29.751Z,9.20
2019-04-25T22:37:31.389Z,9.20
2019-04-25T22:42:34.080Z,9.10
2019-04-25T22:47:35.582Z,9.10
2019-04-25T22:52:37.016Z,9.10
2019-04-25T22:57:38.515Z,9.10
2019-04-25T23:02:42.807Z,9.20
2019-04-25T23:07:44.363Z,9.10
2019-04-25T23:12:50.019Z,9.20
2019-04-25T23:17:51.438Z,9.20
2019-04-25T23:22:53.245Z,9.20
2019-04-25T23:28:14.538Z,9.30
2019-04-25T23:33:16.557Z,9.30
2019-04-25T23:38:18.225Z,9.30
2019-04-25T23:43:20.636Z,9.30
2019-04-25T23:48:22.103Z,9.40
2019-04-25T23:53:24.507Z,9.40
2019-04-25T23:58:27.015Z,9.40
